Time;durP1;ratioP1;P1;durP2;ratioP2;P2;SDS_P1;SDS_P2;PMS_P1;PMS_P2;Temp;Humidity;BMP_temperature;BMP_pressure;BME280_temperature;BME280_humidity;BME280_pressure;Samples;Min_cycle;Max_cycle;Signal;HPM_P1;HPM_P2
2023/07/27 00:00:13;;;;;;;;;;;9.50;99.90;;;;;;5053540;28;19912;-85
2023/07/27 00:02:40;;;;;;;;;;;9.70;99.90;;;;;;5053601;28;19913;-85
2023/07/27 00:05:06;;;;;;;;;;;9.90;99.90;;;;;;5054855;28;19959;-85
2023/07/27 00:07:32;;;;;;;;;;;10.00;99.90;;;;;;5053368;28;20352;-86
2023/07/27 00:09:57;;;;;;;;;;;10.10;99.90;;;;;;5037050;28;20006;-86
2023/07/27 00:12:23;;;;;;;;;;;10.30;99.90;;;;;;5053904;28;19913;-85
2023/07/27 00:14:49;;;;;;;;;;;10.30;99.90;;;;;;5053565;28;20004;-85
2023/07/27 00:17:15;;;;;;;;;;;10.40;99.90;;;;;;5037022;28;19936;-86
2023/07/27 00:19:40;;;;;;;;;;;10.40;99.90;;;;;;5058275;28;19971;-86
2023/07/27 00:22:06;;;;;;;;;;;10.60;99.90;;;;;;5051350;28;19940;-85
2023/07/27 00:24:32;;;;;;;;;;;10.70;99.90;;;;;;5050110;28;19935;-85
2023/07/27 00:26:57;;;;;;;;;;;10.80;99.90;;;;;;5065777;28;19913;-84
2023/07/27 00:29:23;;;;;;;;;;;10.90;99.90;;;;;;5056489;28;20279;-84
2023/07/27 00:31:50;;;;;;;;;;;10.90;99.90;;;;;;5037142;28;19908;-86
2023/07/27 00:34:16;;;;;;;;;;;11.00;99.90;;;;;;5036972;28;19909;-86
2023/07/27 00:36:41;;;;;;;;;;;11.00;99.90;;;;;;5035440;28;19920;-86
2023/07/27 00:39:07;;;;;;;;;;;11.10;99.90;;;;;;5069329;28;19920;-86
2023/07/27 00:41:33;;;;;;;;;;;11.10;99.90;;;;;;5036304;28;20428;-86
2023/07/27 00:43:58;;;;;;;;;;;11.20;99.90;;;;;;5053047;28;19905;-85
2023/07/27 00:46:24;;;;;;;;;;;11.30;99.90;;;;;;5053150;28;19954;-86
2023/07/27 00:49:13;;;;;;;;;;;11.30;99.90;;;;;;5052918;28;20268;-85
2023/07/27 00:51:42;;;;;;;;;;;11.30;99.90;;;;;;5052106;28;20003;-85
2023/07/27 00:54:08;;;;;;;;;;;11.30;99.90;;;;;;5035969;28;20413;-86
2023/07/27 00:56:35;;;;;;;;;;;11.30;99.90;;;;;;5035406;28;19908;-85
2023/07/27 00:59:01;;;;;;;;;;;11.20;99.90;;;;;;5068915;28;19916;-86
2023/07/27 01:01:27;;;;;;;;;;;11.20;99.90;;;;;;5036471;28;19915;-86
2023/07/27 01:03:53;;;;;;;;;;;11.20;99.90;;;;;;5086525;28;20386;-86
2023/07/27 01:06:27;;;;;;;;;;;11.20;99.90;;;;;;5036289;28;19916;-85
2023/07/27 01:08:53;;;;;;;;;;;11.10;99.90;;;;;;5036012;28;19909;-86
2023/07/27 01:11:23;;;;;;;;;;;11.10;99.90;;;;;;5051784;28;19913;-85
2023/07/27 01:14:08;;;;;;;;;;;11.10;99.90;;;;;;5052851;28;19913;-85
2023/07/27 01:16:37;;;;;;;;;;;11.00;99.90;;;;;;5046452;28;20276;-85
2023/07/27 01:19:23;;;;;;;;;;;11.00;99.90;;;;;;5035743;28;19942;-86
2023/07/27 01:21:51;;;;;;;;;;;11.00;99.90;;;;;;5035903;28;19920;-85
2023/07/27 01:24:29;;;;;;;;;;;11.00;99.90;;;;;;5035873;28;20362;-86
2023/07/27 01:26:57;;;;;;;;;;;11.00;99.90;;;;;;5052281;28;19999;-86
2023/07/27 01:29:42;;;;;;;;;;;11.00;99.90;;;;;;5035536;28;19912;-85
2023/07/27 01:32:09;;;;;;;;;;;11.00;99.90;;;;;;5052405;28;20261;-85
2023/07/27 01:34:34;;;;;;;;;;;10.90;99.90;;;;;;5052318;28;19958;-86
2023/07/27 01:37:04;;;;;;;;;;;10.80;99.90;;;;;;5051839;28;20276;-86
2023/07/27 01:39:31;;;;;;;;;;;10.80;99.90;;;;;;5035499;28;19913;-85
2023/07/27 01:41:58;;;;;;;;;;;10.70;99.90;;;;;;5035611;28;19960;-86
2023/07/27 01:44:24;;;;;;;;;;;10.70;99.90;;;;;;5052433;28;19908;-86
2023/07/27 01:46:51;;;;;;;;;;;10.70;99.90;;;;;;5036844;28;19904;-85
2023/07/27 01:49:17;;;;;;;;;;;10.60;99.90;;;;;;5089612;28;20008;-85
2023/07/27 01:51:43;;;;;;;;;;;10.60;99.90;;;;;;5039246;28;19908;-85
2023/07/27 01:54:09;;;;;;;;;;;10.60;99.90;;;;;;5089241;28;19904;-85
2023/07/27 01:56:36;;;;;;;;;;;10.60;99.90;;;;;;5039128;28;19916;-85
2023/07/27 01:59:02;;;;;;;;;;;10.50;99.90;;;;;;5089085;28;19916;-85
2023/07/27 02:01:28;;;;;;;;;;;10.50;99.90;;;;;;5055647;28;19916;-85
2023/07/27 02:03:53;;;;;;;;;;;10.50;99.90;;;;;;5038589;28;19916;-85
2023/07/27 02:06:19;;;;;;;;;;;10.50;99.90;;;;;;5038577;28;19912;-85
2023/07/27 02:08:45;;;;;;;;;;;10.50;99.90;;;;;;5055540;28;19908;-85
2023/07/27 02:11:11;;;;;;;;;;;10.40;99.90;;;;;;5055185;28;19963;-85
2023/07/27 02:13:37;;;;;;;;;;;10.40;99.90;;;;;;5039150;28;19905;-86
2023/07/27 02:16:17;;;;;;;;;;;10.50;99.90;;;;;;5038949;28;19914;-86
2023/07/27 02:18:45;;;;;;;;;;;10.50;99.90;;;;;;5039026;28;19920;-85
2023/07/27 02:21:11;;;;;;;;;;;10.40;99.90;;;;;;5088835;28;19957;-85
2023/07/27 02:23:37;;;;;;;;;;;10.40;99.90;;;;;;5055722;28;20328;-85
2023/07/27 02:26:03;;;;;;;;;;;10.40;99.90;;;;;;5055681;28;19959;-85
2023/07/27 02:28:29;;;;;;;;;;;10.40;99.90;;;;;;5038954;28;19908;-85
2023/07/27 02:30:55;;;;;;;;;;;10.40;99.90;;;;;;5089565;28;19928;-85
2023/07/27 02:33:20;;;;;;;;;;;10.40;99.90;;;;;;5055065;28;19913;-85
2023/07/27 02:35:46;;;;;;;;;;;10.50;99.90;;;;;;5055150;28;19962;-85
2023/07/27 02:38:12;;;;;;;;;;;10.50;99.90;;;;;;5038488;28;19917;-85
2023/07/27 02:40:37;;;;;;;;;;;10.60;99.90;;;;;;5088321;28;20383;-85
2023/07/27 02:43:04;;;;;;;;;;;10.70;99.90;;;;;;5038650;28;20352;-85
2023/07/27 02:45:33;;;;;;;;;;;10.70;99.90;;;;;;5054886;28;19919;-85
2023/07/27 02:47:59;;;;;;;;;;;10.70;99.90;;;;;;5038614;28;19909;-85
2023/07/27 02:50:24;;;;;;;;;;;10.80;99.90;;;;;;5055472;28;19908;-85
2023/07/27 02:53:01;;;;;;;;;;;10.80;99.90;;;;;;5040326;28;19912;-85
2023/07/27 02:55:27;;;;;;;;;;;10.80;99.90;;;;;;5049572;28;20264;-85
2023/07/27 02:57:55;;;;;;;;;;;10.80;99.90;;;;;;5054671;28;20356;-85
2023/07/27 03:00:21;;;;;;;;;;;10.80;99.90;;;;;;5054879;28;19923;-85
2023/07/27 03:02:49;;;;;;;;;;;10.80;99.90;;;;;;5058359;28;19912;-84
2023/07/27 03:05:14;;;;;;;;;;;10.80;99.90;;;;;;5043954;28;19920;-85
2023/07/27 03:11:09;;;;;;;;;;;10.90;99.90;;;;;;5053771;28;19978;-86
2023/07/27 03:13:35;;;;;;;;;;;10.80;99.90;;;;;;5038607;28;19915;-86
2023/07/27 03:16:01;;;;;;;;;;;10.90;99.90;;;;;;5038010;28;19905;-86
2023/07/27 03:18:27;;;;;;;;;;;10.90;99.90;;;;;;5088024;28;19951;-85
2023/07/27 03:20:53;;;;;;;;;;;10.90;99.90;;;;;;5054881;28;19909;-85
2023/07/27 03:23:19;;;;;;;;;;;10.90;99.90;;;;;;5055096;28;20439;-85
2023/07/27 03:29:14;;;;;;;;;;;11.00;99.90;;;;;;5055496;28;19931;-85
2023/07/27 03:31:39;;;;;;;;;;;11.00;99.90;;;;;;5037360;28;19909;-85
2023/07/27 03:34:05;;;;;;;;;;;11.00;99.90;;;;;;5037167;28;20004;-85
2023/07/27 03:36:31;;;;;;;;;;;11.10;99.90;;;;;;5045327;28;20000;-85
2023/07/27 03:38:56;;;;;;;;;;;11.10;99.90;;;;;;5053722;28;19913;-85
2023/07/27 03:41:22;;;;;;;;;;;11.10;99.90;;;;;;5070536;28;19909;-85
2023/07/27 03:43:53;;;;;;;;;;;11.10;99.90;;;;;;5037453;28;20003;-85
2023/07/27 03:46:20;;;;;;;;;;;11.10;99.90;;;;;;5053618;28;20429;-86
2023/07/27 03:48:46;;;;;;;;;;;11.10;99.90;;;;;;5036247;28;19908;-85
2023/07/27 03:51:12;;;;;;;;;;;11.10;99.90;;;;;;5066591;28;20010;-86
2023/07/27 03:53:38;;;;;;;;;;;11.10;99.90;;;;;;5070381;28;19963;-86
2023/07/27 03:56:04;;;;;;;;;;;11.10;99.90;;;;;;5037129;28;19909;-86
2023/07/27 03:58:30;;;;;;;;;;;11.10;99.90;;;;;;5053693;28;20352;-86
2023/07/27 04:00:57;;;;;;;;;;;11.00;99.90;;;;;;5037157;28;19915;-86
2023/07/27 04:03:22;;;;;;;;;;;11.10;99.90;;;;;;5053668;28;20356;-86
2023/07/27 04:05:49;;;;;;;;;;;11.20;99.90;;;;;;5037295;28;19909;-86
2023/07/27 04:08:15;;;;;;;;;;;11.20;99.90;;;;;;5070498;28;19909;-85
2023/07/27 04:10:40;;;;;;;;;;;11.20;99.90;;;;;;5036355;28;19988;-85
2023/07/27 04:13:06;;;;;;;;;;;11.30;99.90;;;;;;5053557;28;19911;-86
2023/07/27 04:15:33;;;;;;;;;;;11.30;99.90;;;;;;5053297;28;19991;-86
2023/07/27 04:17:58;;;;;;;;;;;11.20;99.90;;;;;;5087132;28;19913;-86
2023/07/27 04:20:24;;;;;;;;;;;11.30;99.90;;;;;;5054268;28;19909;-86
2023/07/27 04:22:49;;;;;;;;;;;11.20;99.90;;;;;;5053176;28;19908;-86
2023/07/27 04:25:15;;;;;;;;;;;11.30;99.90;;;;;;5053472;28;19936;-86
2023/07/27 04:27:41;;;;;;;;;;;11.30;99.90;;;;;;5053306;28;19908;-86
2023/07/27 04:30:06;;;;;;;;;;;11.40;99.90;;;;;;5053296;28;19909;-86
2023/07/27 04:32:32;;;;;;;;;;;11.40;99.90;;;;;;5053273;28;20279;-86
2023/07/27 04:34:58;;;;;;;;;;;11.40;99.90;;;;;;5053396;28;20270;-85
2023/07/27 04:37:23;;;;;;;;;;;11.50;99.90;;;;;;5053156;28;19916;-86
2023/07/27 04:39:49;;;;;;;;;;;11.50;99.90;;;;;;5053350;28;19915;-86
2023/07/27 04:42:14;;;;;;;;;;;11.50;99.90;;;;;;5053163;28;19909;-85
2023/07/27 04:44:41;;;;;;;;;;;11.60;99.90;;;;;;5036395;28;20153;-85
2023/07/27 04:47:07;;;;;;;;;;;11.60;99.90;;;;;;5053538;28;19924;-86
2023/07/27 04:49:39;;;;;;;;;;;11.70;99.90;;;;;;5036379;28;19912;-86
2023/07/27 04:52:04;;;;;;;;;;;11.80;99.90;;;;;;5053018;28;20004;-86
2023/07/27 04:54:30;;;;;;;;;;;11.90;99.90;;;;;;5053164;28;19951;-86
2023/07/27 04:56:55;;;;;;;;;;;11.90;99.90;;;;;;5053929;28;20317;-85
2023/07/27 04:59:21;;;;;;;;;;;11.90;99.90;;;;;;5036200;28;19912;-86
2023/07/27 05:01:47;;;;;;;;;;;12.00;99.90;;;;;;5036461;28;19912;-86
2023/07/27 05:04:12;;;;;;;;;;;11.90;99.90;;;;;;5052529;28;19909;-86
2023/07/27 05:06:41;;;;;;;;;;;12.00;99.90;;;;;;5052692;28;19916;-86
2023/07/27 05:09:07;;;;;;;;;;;12.00;99.90;;;;;;5036454;28;19923;-86
2023/07/27 05:11:32;;;;;;;;;;;12.10;99.90;;;;;;5086350;28;19909;-85
2023/07/27 05:13:58;;;;;;;;;;;12.10;99.90;;;;;;5052908;28;20311;-86
2023/07/27 05:16:23;;;;;;;;;;;12.20;99.90;;;;;;5052462;28;19908;-85
2023/07/27 05:18:49;;;;;;;;;;;12.30;99.90;;;;;;5035983;28;20318;-85
2023/07/27 05:21:46;;;;;;;;;;;12.40;99.90;;;;;;5052801;28;20218;-86
2023/07/27 05:24:11;;;;;;;;;;;12.50;99.90;;;;;;5037321;28;19913;-86
2023/07/27 05:26:37;;;;;;;;;;;12.60;99.90;;;;;;5052635;28;20275;-86
2023/07/27 05:29:02;;;;;;;;;;;12.50;99.90;;;;;;5035720;28;20419;-86
2023/07/27 05:31:28;;;;;;;;;;;12.60;99.90;;;;;;5052327;28;19909;-86
2023/07/27 05:33:53;;;;;;;;;;;12.60;99.90;;;;;;5052352;28;19987;-86
2023/07/27 05:36:19;;;;;;;;;;;12.70;99.90;;;;;;5052060;28;19913;-86
2023/07/27 05:38:44;;;;;;;;;;;12.70;99.90;;;;;;5052374;28;20372;-86
2023/07/27 05:41:10;;;;;;;;;;;12.70;99.90;;;;;;5035808;28;19919;-85
2023/07/27 05:43:36;;;;;;;;;;;12.90;99.90;;;;;;5052763;28;19999;-86
2023/07/27 05:46:01;;;;;;;;;;;13.00;99.90;;;;;;5035911;28;20287;-86
2023/07/27 05:48:27;;;;;;;;;;;13.30;99.90;;;;;;5035597;28;19909;-86
2023/07/27 05:51:01;;;;;;;;;;;13.50;99.90;;;;;;5035502;28;20007;-86
2023/07/27 05:53:27;;;;;;;;;;;13.70;99.90;;;;;;5035457;28;20007;-85
2023/07/27 05:55:53;;;;;;;;;;;13.90;99.90;;;;;;5035373;28;19940;-86
2023/07/27 06:01:21;;;;;;;;;;;14.20;99.90;;;;;;5086051;28;20764;-86
2023/07/27 06:03:47;;;;;;;;;;;14.20;99.90;;;;;;5052333;28;19912;-86
2023/07/27 06:06:13;;;;;;;;;;;14.10;99.90;;;;;;5035438;28;20382;-86
2023/07/27 06:08:39;;;;;;;;;;;14.00;99.90;;;;;;5052174;28;19915;-86
2023/07/27 06:11:06;;;;;;;;;;;14.00;99.90;;;;;;5035554;28;19905;-86
2023/07/27 06:13:32;;;;;;;;;;;14.10;99.90;;;;;;5035817;28;19915;-86
2023/07/27 06:15:58;;;;;;;;;;;14.30;99.90;;;;;;5052262;28;19908;-86
2023/07/27 06:18:24;;;;;;;;;;;14.40;99.90;;;;;;5052266;28;20030;-85
2023/07/27 06:20:49;;;;;;;;;;;14.50;99.90;;;;;;5035612;28;19916;-86
2023/07/27 06:23:15;;;;;;;;;;;14.60;99.90;;;;;;5052484;28;19916;-86
2023/07/27 06:25:41;;;;;;;;;;;14.70;99.90;;;;;;5035683;28;19931;-86
2023/07/27 06:28:07;;;;;;;;;;;14.80;99.90;;;;;;5052274;28;19908;-86
2023/07/27 06:30:34;;;;;;;;;;;14.80;99.90;;;;;;5035655;28;19959;-86
2023/07/27 06:33:00;;;;;;;;;;;14.80;99.90;;;;;;5052459;28;20474;-86
2023/07/27 06:35:26;;;;;;;;;;;14.90;99.90;;;;;;5039087;28;19939;-86
2023/07/27 06:37:51;;;;;;;;;;;14.90;99.90;;;;;;5039116;28;20283;-86
2023/07/27 06:40:17;;;;;;;;;;;15.20;99.90;;;;;;5038688;28;19969;-86
2023/07/27 06:42:42;;;;;;;;;;;15.30;99.90;;;;;;5055658;28;19916;-86
2023/07/27 06:45:08;;;;;;;;;;;15.30;99.90;;;;;;5039067;28;19913;-86
2023/07/27 06:47:34;;;;;;;;;;;15.40;99.90;;;;;;5055368;28;19938;-87
2023/07/27 06:49:59;;;;;;;;;;;15.40;99.90;;;;;;5038916;28;19909;-86
2023/07/27 06:52:25;;;;;;;;;;;15.60;99.90;;;;;;5055484;28;19916;-87
2023/07/27 06:54:51;;;;;;;;;;;15.70;99.90;;;;;;5038739;28;19912;-86
2023/07/27 06:57:16;;;;;;;;;;;15.90;99.90;;;;;;5038611;28;19908;-87
2023/07/27 06:59:42;;;;;;;;;;;16.10;99.90;;;;;;5054986;28;19935;-86
2023/07/27 07:02:08;;;;;;;;;;;16.30;99.90;;;;;;5055305;28;19909;-86
2023/07/27 07:04:33;;;;;;;;;;;16.30;99.90;;;;;;5038807;28;20409;-87
2023/07/27 07:06:59;;;;;;;;;;;16.30;99.90;;;;;;5055248;28;19908;-87
2023/07/27 07:09:25;;;;;;;;;;;16.10;99.90;;;;;;5038644;28;19996;-87
2023/07/27 07:11:50;;;;;;;;;;;16.00;99.90;;;;;;5055062;28;20376;-87
2023/07/27 07:14:16;;;;;;;;;;;15.90;99.90;;;;;;5054825;28;19950;-86
2023/07/27 07:16:42;;;;;;;;;;;15.90;99.90;;;;;;5055093;28;19909;-86
2023/07/27 07:19:07;;;;;;;;;;;16.10;99.90;;;;;;5038375;28;19934;-87
2023/07/27 07:21:33;;;;;;;;;;;16.30;99.90;;;;;;5056168;28;19909;-87
2023/07/27 07:23:59;;;;;;;;;;;16.40;99.90;;;;;;5038735;28;19909;-87
2023/07/27 07:26:30;;;;;;;;;;;16.50;99.90;;;;;;5054755;28;20099;-86
2023/07/27 07:28:56;;;;;;;;;;;16.60;99.90;;;;;;5038135;28;19908;-86
2023/07/27 07:31:21;;;;;;;;;;;16.40;99.90;;;;;;5037802;28;19916;-86
2023/07/27 07:33:47;;;;;;;;;;;16.30;99.90;;;;;;5038045;28;19915;-86
2023/07/27 07:36:12;;;;;;;;;;;16.00;99.90;;;;;;5037836;28;19920;-87
2023/07/27 07:39:00;;;;;;;;;;;15.70;99.90;;;;;;5054139;28;19923;-87
2023/07/27 07:41:54;;;;;;;;;;;15.50;99.90;;;;;;5054554;28;19909;-86
2023/07/27 07:44:19;;;;;;;;;;;15.40;99.90;;;;;;5046654;28;19909;-86
2023/07/27 07:46:45;;;;;;;;;;;15.30;99.90;;;;;;5055881;28;19909;-86
2023/07/27 07:49:10;;;;;;;;;;;15.10;99.90;;;;;;5037633;28;20415;-86
2023/07/27 07:51:36;;;;;;;;;;;15.20;99.90;;;;;;5038035;28;19912;-87
2023/07/27 07:54:02;;;;;;;;;;;15.10;99.90;;;;;;5038050;28;19956;-87
2023/07/27 07:56:27;;;;;;;;;;;14.90;99.90;;;;;;5037570;28;20406;-87
2023/07/27 07:58:53;;;;;;;;;;;14.70;99.90;;;;;;5055546;28;19916;-87
2023/07/27 08:01:18;;;;;;;;;;;14.60;99.90;;;;;;5054217;28;20348;-87
2023/07/27 08:03:44;;;;;;;;;;;14.40;99.90;;;;;;5087086;28;20306;-85
2023/07/27 08:06:32;;;;;;;;;;;14.20;99.90;;;;;;5037141;28;19954;-85
2023/07/27 08:08:57;;;;;;;;;;;14.10;99.90;;;;;;5070360;28;20267;-86
2023/07/27 08:11:23;;;;;;;;;;;13.90;99.90;;;;;;5053827;28;19999;-86
2023/07/27 08:13:48;;;;;;;;;;;13.70;99.90;;;;;;5087363;28;19924;-86
2023/07/27 08:16:14;;;;;;;;;;;13.70;99.90;;;;;;5087258;28;19912;-86
2023/07/27 08:18:39;;;;;;;;;;;13.60;99.90;;;;;;5036976;28;20424;-87
2023/07/27 08:21:30;;;;;;;;;;;13.70;99.90;;;;;;5053889;28;19931;-87
2023/07/27 08:23:56;;;;;;;;;;;13.70;99.90;;;;;;5053729;28;19920;-87
2023/07/27 08:26:21;;;;;;;;;;;13.90;99.90;;;;;;5053912;28;19909;-87
2023/07/27 08:28:47;;;;;;;;;;;14.10;99.90;;;;;;5053818;28;20356;-87
2023/07/27 08:31:13;;;;;;;;;;;14.10;99.90;;;;;;5037283;28;19916;-87
2023/07/27 08:34:10;;;;;;;;;;;14.20;99.90;;;;;;5053731;28;19909;-87
2023/07/27 08:36:35;;;;;;;;;;;14.20;99.90;;;;;;5036665;28;19920;-87
2023/07/27 08:39:01;;;;;;;;;;;14.10;99.90;;;;;;5036840;28;19916;-87
2023/07/27 08:41:27;;;;;;;;;;;14.10;99.90;;;;;;5037359;28;19908;-86
2023/07/27 08:43:53;;;;;;;;;;;14.00;99.90;;;;;;5053568;28;20050;-87
2023/07/27 08:46:19;;;;;;;;;;;13.90;99.90;;;;;;5052980;28;19943;-86
2023/07/27 08:48:45;;;;;;;;;;;13.90;99.90;;;;;;5086245;28;19909;-86
2023/07/27 08:51:11;;;;;;;;;;;13.90;99.90;;;;;;5036553;28;20379;-86
2023/07/27 08:53:36;;;;;;;;;;;13.90;99.90;;;;;;5052308;28;19912;-86
2023/07/27 08:56:08;;;;;;;;;;;14.00;99.90;;;;;;5035220;28;19955;-85
2023/07/27 08:58:34;;;;;;;;;;;13.90;99.90;;;;;;5052510;28;20022;-85
2023/07/27 09:00:59;;;;;;;;;;;14.00;99.90;;;;;;5052369;28;20073;-86
2023/07/27 09:03:26;;;;;;;;;;;14.00;99.90;;;;;;5052342;28;19908;-85
2023/07/27 09:05:57;;;;;;;;;;;14.20;99.90;;;;;;5035787;28;20007;-86
2023/07/27 09:08:26;;;;;;;;;;;14.40;99.90;;;;;;5085560;28;19952;-86
2023/07/27 09:14:01;;;;;;;;;;;14.50;99.90;;;;;;5052893;28;19909;-86
2023/07/27 09:16:27;;;;;;;;;;;14.50;99.90;;;;;;5052353;28;19991;-86
2023/07/27 09:18:53;;;;;;;;;;;14.40;99.90;;;;;;5051800;28;19991;-85
2023/07/27 09:21:19;;;;;;;;;;;14.40;99.90;;;;;;5035698;28;19909;-85
2023/07/27 09:23:45;;;;;;;;;;;14.30;99.90;;;;;;5052394;28;19911;-86
2023/07/27 09:26:10;;;;;;;;;;;14.20;99.90;;;;;;5052299;28;19917;-85
2023/07/27 09:28:36;;;;;;;;;;;14.10;99.90;;;;;;5036268;28;20328;-85
2023/07/27 09:31:05;;;;;;;;;;;13.90;99.90;;;;;;5052034;28;19909;-86
2023/07/27 09:33:31;;;;;;;;;;;13.80;99.90;;;;;;5052223;28;21014;-85
2023/07/27 09:35:56;;;;;;;;;;;13.60;99.90;;;;;;5051504;28;20366;-85
2023/07/27 09:38:26;;;;;;;;;;;13.50;99.90;;;;;;5052095;28;20331;-85
2023/07/27 09:40:51;;;;;;;;;;;13.50;99.90;;;;;;5052008;28;20420;-86
2023/07/27 09:43:17;;;;;;;;;;;13.50;99.90;;;;;;5035334;28;19987;-85
2023/07/27 09:45:42;;;;;;;;;;;13.50;99.90;;;;;;5085238;28;19920;-85
2023/07/27 09:48:08;;;;;;;;;;;13.50;99.90;;;;;;5035349;28;19916;-85
2023/07/27 09:50:37;;;;;;;;;;;13.40;99.90;;;;;;5052077;28;19909;-86
2023/07/27 09:53:03;;;;;;;;;;;13.40;99.90;;;;;;5035250;28;20356;-85
2023/07/27 09:55:30;;;;;;;;;;;13.30;99.90;;;;;;5051861;28;20003;-85
2023/07/27 09:57:57;;;;;;;;;;;13.40;99.90;;;;;;5051287;28;19951;-86
2023/07/27 10:00:23;;;;;;;;;;;13.40;99.90;;;;;;5052423;28;19909;-85
2023/07/27 10:02:48;;;;;;;;;;;13.50;99.90;;;;;;5035803;28;19908;-86
2023/07/27 10:05:14;;;;;;;;;;;13.60;99.90;;;;;;5035157;28;20003;-85
2023/07/27 10:07:41;;;;;;;;;;;13.60;99.90;;;;;;5052669;28;20352;-86
2023/07/27 10:10:26;;;;;;;;;;;13.70;99.90;;;;;;5055967;28;20439;-85
2023/07/27 10:12:54;;;;;;;;;;;13.70;99.90;;;;;;5038876;28;19931;-86
2023/07/27 10:15:28;;;;;;;;;;;13.70;99.90;;;;;;5039441;28;19909;-87
2023/07/27 10:17:58;;;;;;;;;;;13.90;99.90;;;;;;5038755;28;20245;-85
2023/07/27 10:20:29;;;;;;;;;;;13.90;99.90;;;;;;5039161;28;19909;-86
2023/07/27 10:23:10;;;;;;;;;;;14.00;99.90;;;;;;5055801;28;19915;-86
2023/07/27 10:25:52;;;;;;;;;;;13.90;99.90;;;;;;5055484;28;19909;-86
2023/07/27 10:28:31;;;;;;;;;;;13.80;99.90;;;;;;5056875;28;19913;-84
2023/07/27 10:31:15;;;;;;;;;;;13.80;99.90;;;;;;5086905;28;20295;-85
2023/07/27 10:33:44;;;;;;;;;;;13.90;99.90;;;;;;5038839;28;19908;-85
2023/07/27 10:36:10;;;;;;;;;;;14.10;99.90;;;;;;5055019;28;19967;-87
2023/07/27 10:38:36;;;;;;;;;;;14.30;99.90;;;;;;5038629;28;19909;-85
2023/07/27 10:41:14;;;;;;;;;;;14.50;99.90;;;;;;5055168;28;19912;-87
2023/07/27 10:43:59;;;;;;;;;;;14.60;99.90;;;;;;5037227;28;19909;-86
2023/07/27 10:46:24;;;;;;;;;;;14.70;99.90;;;;;;5049205;28;20245;-86
2023/07/27 10:49:08;;;;;;;;;;;14.80;99.90;;;;;;5055025;28;19916;-86
2023/07/27 10:51:34;;;;;;;;;;;14.70;99.90;;;;;;5038199;28;19909;-86
2023/07/27 10:54:00;;;;;;;;;;;14.60;99.90;;;;;;5088502;28;19915;-86
2023/07/27 10:56:26;;;;;;;;;;;14.70;99.90;;;;;;5038064;28;19991;-86
2023/07/27 10:58:55;;;;;;;;;;;14.70;99.90;;;;;;5054770;28;20007;-86
2023/07/27 11:01:21;;;;;;;;;;;14.80;99.90;;;;;;5038330;28;19918;-85
2023/07/27 11:03:47;;;;;;;;;;;14.90;99.90;;;;;;5088053;28;19992;-86
2023/07/27 11:06:13;;;;;;;;;;;15.00;99.90;;;;;;5056053;28;19966;-86
2023/07/27 11:08:40;;;;;;;;;;;15.00;99.90;;;;;;5055182;28;20356;-87
2023/07/27 11:11:13;;;;;;;;;;;14.90;99.90;;;;;;5038150;28;19909;-86
2023/07/27 11:13:38;;;;;;;;;;;14.80;99.90;;;;;;5054757;28;19921;-86
2023/07/27 11:16:32;;;;;;;;;;;14.80;99.90;;;;;;5054377;28;19904;-84
2023/07/27 11:19:00;;;;;;;;;;;14.70;99.90;;;;;;5036683;28;19916;-85
2023/07/27 11:21:26;;;;;;;;;;;14.50;99.90;;;;;;5055741;28;20398;-86
2023/07/27 11:23:52;;;;;;;;;;;14.50;99.90;;;;;;5037866;28;19956;-86
2023/07/27 11:26:18;;;;;;;;;;;14.40;99.90;;;;;;5037555;28;19913;-86
2023/07/27 11:28:44;;;;;;;;;;;14.50;99.90;;;;;;5037665;28;19932;-86
2023/07/27 11:31:15;;;;;;;;;;;14.50;99.90;;;;;;5054475;28;19905;-85
2023/07/27 11:34:19;;;;;;;;;;;14.70;99.90;;;;;;5037808;28;19932;-86
2023/07/27 11:36:49;;;;;;;;;;;14.80;99.90;;;;;;5042852;28;19999;-86
2023/07/27 11:39:15;;;;;;;;;;;15.00;99.90;;;;;;5053887;28;19938;-86
2023/07/27 11:41:41;;;;;;;;;;;15.20;99.90;;;;;;5054284;28;19931;-86
2023/07/27 11:44:07;;;;;;;;;;;15.20;99.90;;;;;;5053900;28;19909;-86
2023/07/27 11:46:39;;;;;;;;;;;15.00;99.90;;;;;;5053668;28;19913;-87
2023/07/27 11:49:05;;;;;;;;;;;15.00;99.90;;;;;;5053836;28;19947;-87
2023/07/27 11:51:31;;;;;;;;;;;15.00;99.90;;;;;;5053638;28;19916;-87
2023/07/27 11:53:56;;;;;;;;;;;14.90;99.90;;;;;;5087038;28;19943;-86
2023/07/27 11:56:22;;;;;;;;;;;15.00;99.90;;;;;;5036574;28;19956;-86
2023/07/27 11:58:49;;;;;;;;;;;14.90;99.90;;;;;;5053422;28;19916;-86
2023/07/27 12:01:15;;;;;;;;;;;14.90;99.90;;;;;;5036723;28;19917;-86
2023/07/27 12:03:42;;;;;;;;;;;14.90;99.90;;;;;;5036898;28;19919;-86
2023/07/27 12:06:07;;;;;;;;;;;14.90;99.90;;;;;;5053333;28;20015;-86
2023/07/27 12:08:38;;;;;;;;;;;15.00;99.90;;;;;;5036895;28;19917;-86
2023/07/27 12:11:03;;;;;;;;;;;15.00;99.90;;;;;;5036662;28;19939;-86
2023/07/27 12:13:29;;;;;;;;;;;15.00;99.90;;;;;;5036264;28;20425;-86
2023/07/27 12:15:59;;;;;;;;;;;14.90;99.90;;;;;;5053421;28;20360;-86
2023/07/27 12:18:26;;;;;;;;;;;14.90;99.90;;;;;;5059310;28;19917;-87
2023/07/27 12:20:52;;;;;;;;;;;14.90;99.90;;;;;;5051451;28;19908;-86
2023/07/27 12:23:18;;;;;;;;;;;14.90;99.90;;;;;;5053569;28;19999;-87
2023/07/27 12:25:44;;;;;;;;;;;15.10;99.90;;;;;;5037219;28;20375;-87
2023/07/27 12:28:09;;;;;;;;;;;15.20;99.90;;;;;;5053152;28;19971;-87
2023/07/27 12:30:35;;;;;;;;;;;15.20;99.90;;;;;;5053045;28;19931;-87
2023/07/27 12:33:00;;;;;;;;;;;15.30;99.90;;;;;;5053005;28;20371;-86
2023/07/27 12:35:28;;;;;;;;;;;15.40;99.90;;;;;;5036446;28;20356;-87
2023/07/27 12:37:54;;;;;;;;;;;15.30;99.90;;;;;;5053079;28;19944;-87
2023/07/27 12:40:20;;;;;;;;;;;15.30;99.90;;;;;;5036238;28;19991;-87
2023/07/27 12:42:45;;;;;;;;;;;15.10;99.90;;;;;;5036450;28;19954;-87
2023/07/27 12:45:11;;;;;;;;;;;15.10;99.90;;;;;;5036128;28;19920;-86
2023/07/27 12:47:37;;;;;;;;;;;15.30;99.90;;;;;;5036196;28;19970;-86
2023/07/27 12:50:02;;;;;;;;;;;15.40;99.90;;;;;;5035770;28;19909;-86
2023/07/27 12:52:28;;;;;;;;;;;15.50;99.90;;;;;;5053082;28;19931;-86
2023/07/27 12:54:56;;;;;;;;;;;15.60;99.90;;;;;;5052459;28;20407;-86
2023/07/27 12:57:22;;;;;;;;;;;15.60;99.90;;;;;;5052526;28;19947;-87
2023/07/27 12:59:48;;;;;;;;;;;15.10;99.90;;;;;;5052663;28;20442;-87
2023/07/27 13:02:13;;;;;;;;;;;14.90;99.90;;;;;;5052676;28;19908;-86
2023/07/27 13:04:39;;;;;;;;;;;14.90;99.90;;;;;;5053367;28;19934;-88
2023/07/27 13:07:07;;;;;;;;;;;14.90;99.90;;;;;;5051843;28;19943;-87
2023/07/27 13:09:32;;;;;;;;;;;14.90;99.90;;;;;;5052565;28;19908;-86
2023/07/27 13:11:58;;;;;;;;;;;14.80;99.90;;;;;;5035736;28;19913;-86
2023/07/27 13:14:23;;;;;;;;;;;14.70;99.90;;;;;;5036242;28;20008;-86
2023/07/27 13:16:49;;;;;;;;;;;14.80;99.90;;;;;;5032158;28;19916;-86
2023/07/27 13:19:15;;;;;;;;;;;14.80;99.90;;;;;;5051964;28;19919;-86
2023/07/27 13:21:40;;;;;;;;;;;14.70;99.90;;;;;;5035594;28;19916;-86
2023/07/27 13:24:06;;;;;;;;;;;14.80;99.90;;;;;;5051916;28;19915;-87
2023/07/27 13:26:31;;;;;;;;;;;14.90;99.90;;;;;;5053229;28;19913;-86
2023/07/27 13:28:57;;;;;;;;;;;14.80;99.90;;;;;;5052070;28;19913;-86
2023/07/27 13:31:23;;;;;;;;;;;14.80;99.90;;;;;;5056833;28;19924;-86
2023/07/27 13:33:50;;;;;;;;;;;14.80;99.90;;;;;;5077165;28;19908;-86
2023/07/27 13:36:37;;;;;;;;;;;14.70;99.90;;;;;;5041039;28;19958;-86
2023/07/27 13:39:03;;;;;;;;;;;14.70;99.90;;;;;;5039058;28;19923;-86
2023/07/27 13:41:29;;;;;;;;;;;14.70;99.90;;;;;;5048475;28;19908;-87
2023/07/27 13:43:54;;;;;;;;;;;14.80;99.90;;;;;;5041380;28;19908;-86
2023/07/27 13:46:22;;;;;;;;;;;14.90;99.90;;;;;;5058473;28;19909;-86
2023/07/27 13:48:47;;;;;;;;;;;15.00;99.90;;;;;;5041998;28;19909;-86
2023/07/27 13:51:13;;;;;;;;;;;15.10;99.90;;;;;;5042199;28;19912;-86
2023/07/27 13:53:38;;;;;;;;;;;15.20;99.90;;;;;;5058898;28;19908;-87
2023/07/27 13:56:04;;;;;;;;;;;15.30;99.90;;;;;;5041832;28;19959;-86
2023/07/27 13:58:30;;;;;;;;;;;15.30;99.90;;;;;;5058806;28;19909;-87
2023/07/27 14:01:01;;;;;;;;;;;15.40;99.90;;;;;;5042384;28;19909;-87
2023/07/27 14:03:27;;;;;;;;;;;15.40;99.90;;;;;;5059051;28;19999;-87
2023/07/27 14:05:52;;;;;;;;;;;15.60;99.90;;;;;;5042154;28;20348;-86
2023/07/27 14:08:18;;;;;;;;;;;15.60;99.90;;;;;;5092283;28;19916;-87
2023/07/27 14:14:12;;;;;;;;;;;15.70;99.90;;;;;;5059996;28;20283;-86
2023/07/27 14:16:38;;;;;;;;;;;16.00;99.90;;;;;;5041861;28;19909;-87
2023/07/27 14:19:03;;;;;;;;;;;16.10;99.90;;;;;;5058429;28;19974;-86
2023/07/27 14:21:30;;;;;;;;;;;16.10;99.90;;;;;;5058761;28;20318;-87
2023/07/27 14:23:55;;;;;;;;;;;16.20;99.90;;;;;;5058161;28;19991;-87
2023/07/27 14:26:21;;;;;;;;;;;16.20;99.90;;;;;;5041491;28;20332;-86
2023/07/27 14:28:47;;;;;;;;;;;16.20;99.90;;;;;;5041087;28;20360;-86
2023/07/27 14:31:12;;;;;;;;;;;16.20;99.90;;;;;;5058200;28;19931;-87
2023/07/27 14:33:38;;;;;;;;;;;16.20;99.90;;;;;;5035898;28;19967;-87